createdAt,value
2022-12-11T00:00:26.163Z,41.60
2022-12-11T00:02:53.407Z,36.75
2022-12-11T00:05:20.678Z,33.63
2022-12-11T00:07:47.871Z,40.38
2022-12-11T00:10:15.012Z,30.17
2022-12-11T00:12:42.177Z,29.00
2022-12-11T00:15:10.215Z,29.30
2022-12-11T00:17:38.769Z,30.20
2022-12-11T00:20:06.637Z,30.77
2022-12-11T00:22:34.825Z,32.20
2022-12-11T00:25:02.053Z,32.75
2022-12-11T00:27:29.467Z,34.20
2022-12-11T00:29:59.584Z,33.33
2022-12-11T00:32:28.569Z,35.80
2022-12-11T00:34:55.980Z,28.90
2022-12-11T00:37:23.143Z,31.90
2022-12-11T00:39:50.754Z,30.83
2022-12-11T00:42:17.900Z,30.77
2022-12-11T00:44:45.087Z,30.15
2022-12-11T00:47:12.715Z,30.83
2022-12-11T00:49:42.027Z,30.90
2022-12-11T00:52:12.332Z,30.70
2022-12-11T00:54:39.503Z,31.42
2022-12-11T00:57:07.681Z,29.75
2022-12-11T00:59:34.833Z,30.55
2022-12-11T01:02:01.981Z,32.08
2022-12-11T01:04:32.304Z,33.80
2022-12-11T01:07:00.473Z,27.10
2022-12-11T01:09:46.267Z,32.35
2022-12-11T01:12:13.407Z,27.02
2022-12-11T01:14:40.586Z,25.55
2022-12-11T01:17:07.703Z,26.55
2022-12-11T01:19:34.894Z,21.20
2022-12-11T01:22:02.112Z,26.55
2022-12-11T01:24:29.265Z,28.27
2022-12-11T01:26:56.478Z,28.02
2022-12-11T01:29:23.665Z,25.70
2022-12-11T01:31:50.850Z,27.08
2022-12-11T01:34:18.107Z,28.95
2022-12-11T01:36:45.362Z,35.45
2022-12-11T01:39:12.481Z,27.70
2022-12-11T01:41:39.754Z,32.67
2022-12-11T01:44:28.961Z,28.77
2022-12-11T01:46:56.229Z,28.88
2022-12-11T01:49:25.958Z,31.98
2022-12-11T01:51:59.423Z,31.63
2022-12-11T01:54:26.870Z,24.40
2022-12-11T01:56:55.272Z,28.40
2022-12-11T01:59:24.729Z,32.80
2022-12-11T02:02:01.064Z,26.17
2022-12-11T02:04:28.637Z,29.33
2022-12-11T02:06:55.967Z,28.70
2022-12-11T02:09:27.886Z,27.30
2022-12-11T02:12:20.953Z,22.00
2022-12-11T02:15:02.906Z,24.58
2022-12-11T02:18:11.979Z,27.48
2022-12-11T02:21:13.735Z,30.15
2022-12-11T02:24:12.682Z,29.75
2022-12-11T02:27:14.347Z,27.48
2022-12-11T02:30:13.803Z,29.33
2022-12-11T02:32:56.232Z,25.83
2022-12-11T02:35:32.905Z,28.13
2022-12-11T02:38:04.634Z,25.77
2022-12-11T02:40:33.158Z,27.83
2022-12-11T02:43:02.941Z,31.48
2022-12-11T02:45:30.145Z,24.52
2022-12-11T02:47:58.550Z,29.20
2022-12-11T02:50:25.695Z,29.95
2022-12-11T02:52:54.179Z,28.95
2022-12-11T02:55:22.193Z,31.45
2022-12-11T02:57:56.522Z,32.45
2022-12-11T03:02:51.227Z,28.67
2022-12-11T03:05:21.118Z,30.08
2022-12-11T03:07:49.255Z,33.17
2022-12-11T03:10:18.977Z,33.03
2022-12-11T03:12:53.222Z,30.65
2022-12-11T03:15:22.486Z,32.92
2022-12-11T03:17:58.473Z,35.47
2022-12-11T03:20:47.798Z,36.92
2022-12-11T03:23:43.587Z,27.15
2022-12-11T03:26:14.676Z,31.27
2022-12-11T03:29:22.904Z,37.92
2022-12-11T03:32:12.343Z,32.75
2022-12-11T03:35:01.067Z,33.75
2022-12-11T03:37:30.623Z,43.00
2022-12-11T03:40:01.247Z,35.97
2022-12-11T03:42:28.406Z,42.50
2022-12-11T03:44:55.648Z,38.88
2022-12-11T03:47:24.076Z,38.67
2022-12-11T03:49:51.198Z,35.03
2022-12-11T03:52:18.467Z,41.13
2022-12-11T03:54:47.585Z,42.55
2022-12-11T03:57:17.254Z,41.40
2022-12-11T03:59:44.408Z,39.75
2022-12-11T04:02:11.595Z,39.65
2022-12-11T04:04:39.991Z,30.48
2022-12-11T04:07:08.081Z,41.95
2022-12-11T04:09:35.505Z,35.63
2022-12-11T04:12:02.659Z,40.63
2022-12-11T04:14:48.228Z,42.60
2022-12-11T04:17:38.311Z,44.15
2022-12-11T04:20:25.190Z,37.92
2022-12-11T04:23:11.215Z,35.97
2022-12-11T04:25:38.362Z,35.60
2022-12-11T04:28:05.500Z,36.30
2022-12-11T04:30:34.483Z,36.83
2022-12-11T04:33:01.802Z,31.35
2022-12-11T04:35:28.989Z,30.60
2022-12-11T04:37:56.409Z,35.05
2022-12-11T04:40:23.571Z,35.60
2022-12-11T04:42:50.812Z,37.30
2022-12-11T04:45:18.246Z,31.65
2022-12-11T04:47:45.424Z,31.00
2022-12-11T04:50:13.229Z,32.63
2022-12-11T04:52:40.473Z,26.33
2022-12-11T04:55:08.790Z,30.02
2022-12-11T04:57:36.368Z,30.65
2022-12-11T05:00:06.796Z,32.50
2022-12-11T05:02:38.054Z,30.67
2022-12-11T05:05:05.869Z,33.28
2022-12-11T05:07:33.067Z,33.20
2022-12-11T05:10:00.357Z,30.58
2022-12-11T05:12:27.705Z,30.27
2022-12-11T05:14:55.016Z,32.65
2022-12-11T05:17:22.262Z,30.98
2022-12-11T05:19:50.896Z,21.75
2022-12-11T05:22:18.566Z,29.50
2022-12-11T05:24:48.699Z,25.95
2022-12-11T05:27:15.913Z,35.22
2022-12-11T05:29:43.109Z,29.83
2022-12-11T05:32:10.444Z,26.42
2022-12-11T05:34:37.661Z,37.30
2022-12-11T05:37:04.811Z,30.00
2022-12-11T05:39:31.999Z,27.40
2022-12-11T05:41:59.342Z,26.65
2022-12-11T05:44:30.013Z,34.00
2022-12-11T05:46:57.219Z,30.25
2022-12-11T05:49:29.139Z,28.70
2022-12-11T05:51:59.334Z,29.92
2022-12-11T05:54:26.507Z,28.05
2022-12-11T05:56:53.729Z,31.25
2022-12-11T05:59:21.058Z,31.80
2022-12-11T06:01:48.268Z,33.28
2022-12-11T06:04:18.111Z,27.95
2022-12-11T06:06:47.071Z,31.35
2022-12-11T06:09:15.673Z,28.25
2022-12-11T06:11:42.859Z,30.23
2022-12-11T06:14:10.243Z,27.90
2022-12-11T06:16:37.712Z,28.00
2022-12-11T06:19:04.876Z,26.15
2022-12-11T06:21:32.838Z,23.30
2022-12-11T06:24:02.141Z,24.65
2022-12-11T06:26:29.567Z,27.88
2022-12-11T06:28:56.822Z,26.38
2022-12-11T06:31:24.212Z,31.05
2022-12-11T06:33:51.824Z,25.65
2022-12-11T06:36:22.429Z,24.10
2022-12-11T06:38:49.781Z,21.17
2022-12-11T06:41:17.904Z,24.75
2022-12-11T06:43:45.158Z,27.33
2022-12-11T06:46:17.897Z,32.30
2022-12-11T06:48:45.372Z,29.63
2022-12-11T06:51:18.582Z,33.00
2022-12-11T06:53:45.907Z,32.38
2022-12-11T06:56:14.662Z,33.30
2022-12-11T06:58:42.411Z,36.63
2022-12-11T07:01:21.137Z,30.77
2022-12-11T07:03:57.268Z,33.78
2022-12-11T07:06:24.956Z,29.08
2022-12-11T07:08:52.250Z,26.08
2022-12-11T07:11:19.662Z,24.70
2022-12-11T07:13:47.082Z,28.48
2022-12-11T07:16:15.722Z,24.45
2022-12-11T07:18:47.647Z,31.83
2022-12-11T07:21:15.024Z,28.50
2022-12-11T07:23:42.353Z,29.00
2022-12-11T07:26:14.832Z,28.73
2022-12-11T07:28:42.330Z,33.58
2022-12-11T07:31:11.820Z,29.60
2022-12-11T07:33:39.046Z,29.58
2022-12-11T07:36:08.402Z,30.08
2022-12-11T07:38:35.915Z,30.88
2022-12-11T07:41:08.777Z,26.88
2022-12-11T07:43:36.381Z,29.38
2022-12-11T07:46:06.137Z,35.90
2022-12-11T07:48:35.938Z,30.77
2022-12-11T07:51:32.643Z,38.45
2022-12-11T07:54:15.002Z,38.50
2022-12-11T07:56:49.769Z,33.53
2022-12-11T07:59:21.133Z,26.65
2022-12-11T08:01:48.403Z,25.15
2022-12-11T08:04:16.004Z,28.45
2022-12-11T08:06:43.621Z,27.55
2022-12-11T08:09:19.116Z,27.95
2022-12-11T08:11:52.010Z,31.73
2022-12-11T08:14:19.866Z,36.65
2022-12-11T08:16:47.444Z,35.47
2022-12-11T08:19:14.838Z,36.05
2022-12-11T08:21:42.309Z,32.88
2022-12-11T08:24:10.061Z,36.83
2022-12-11T08:26:37.309Z,35.95
2022-12-11T08:29:04.553Z,32.28
2022-12-11T08:31:33.281Z,34.03
2022-12-11T08:34:00.497Z,32.22
2022-12-11T08:36:27.663Z,33.28
2022-12-11T08:38:55.837Z,37.58
2022-12-11T08:41:25.763Z,35.10
2022-12-11T08:43:55.033Z,37.75
2022-12-11T08:46:27.249Z,31.90
2022-12-11T08:48:54.914Z,34.83
2022-12-11T08:51:24.748Z,33.17
2022-12-11T08:53:56.565Z,38.72
2022-12-11T08:56:27.043Z,34.53
2022-12-11T08:58:54.427Z,39.72
2022-12-11T09:01:25.956Z,36.10
2022-12-11T09:03:54.255Z,41.28
2022-12-11T09:06:23.681Z,45.60
2022-12-11T09:08:52.893Z,38.85
2022-12-11T09:11:26.360Z,38.33
2022-12-11T09:13:53.928Z,43.40
2022-12-11T09:16:23.073Z,45.65
2022-12-11T09:18:51.289Z,41.75
2022-12-11T09:21:21.228Z,48.53
2022-12-11T09:23:48.502Z,46.08
2022-12-11T09:26:17.503Z,47.78
2022-12-11T09:28:46.856Z,46.00
2022-12-11T09:31:16.638Z,47.75
2022-12-11T09:33:44.043Z,54.40
2022-12-11T09:36:12.109Z,63.08
2022-12-11T09:38:39.457Z,50.55
2022-12-11T09:41:54.063Z,55.25
2022-12-11T09:44:47.517Z,56.33
2022-12-11T09:47:34.368Z,56.70
2022-12-11T09:50:15.655Z,72.25
2022-12-11T09:53:34.614Z,62.20
2022-12-11T09:56:44.323Z,59.42
2022-12-11T09:59:46.819Z,50.28
2022-12-11T10:02:30.211Z,61.03
2022-12-11T10:05:35.278Z,47.85
2022-12-11T10:08:33.413Z,47.10
2022-12-11T10:11:23.033Z,55.22
2022-12-11T10:13:59.046Z,53.80
2022-12-11T10:16:33.397Z,54.88
2022-12-11T10:21:37.683Z,54.03
2022-12-11T10:24:06.097Z,49.78
2022-12-11T10:26:33.337Z,48.70
2022-12-11T10:29:01.038Z,54.70
2022-12-11T10:31:41.335Z,60.78
2022-12-11T10:34:36.785Z,74.72
2022-12-11T10:37:04.335Z,57.58
2022-12-11T10:39:31.568Z,62.53
2022-12-11T10:41:58.819Z,66.00
2022-12-11T10:44:30.707Z,67.78
2022-12-11T10:47:10.403Z,67.10
2022-12-11T10:49:39.359Z,66.15
2022-12-11T10:52:24.825Z,69.18
2022-12-11T10:55:05.284Z,62.20
2022-12-11T10:57:35.012Z,56.42
2022-12-11T11:00:04.530Z,56.63
2022-12-11T11:02:35.922Z,55.20
2022-12-11T11:05:34.652Z,66.00
2022-12-11T11:08:16.735Z,54.80
2022-12-11T11:10:57.447Z,57.20
2022-12-11T11:13:29.899Z,56.83
2022-12-11T11:16:06.544Z,55.05
2022-12-11T11:18:33.983Z,56.95
2022-12-11T11:21:01.280Z,53.45
2022-12-11T11:23:28.476Z,47.13
2022-12-11T11:26:02.135Z,49.95
2022-12-11T11:28:41.611Z,49.92
2022-12-11T11:31:13.803Z,49.95
2022-12-11T11:34:00.241Z,50.58
2022-12-11T11:36:29.472Z,47.85
2022-12-11T11:39:17.531Z,58.03
2022-12-11T11:42:13.199Z,52.67
2022-12-11T11:45:18.186Z,51.38
2022-12-11T11:48:24.753Z,45.72
2022-12-11T11:50:52.080Z,44.90
2022-12-11T11:53:43.937Z,44.53
2022-12-11T11:56:31.543Z,38.75
2022-12-11T11:59:34.681Z,38.42
2022-12-11T12:02:02.012Z,41.00
2022-12-11T12:04:34.178Z,39.45
2022-12-11T12:07:50.690Z,43.25
2022-12-11T12:10:35.146Z,41.97
2022-12-11T12:13:48.715Z,39.80
2022-12-11T12:16:53.055Z,41.22
2022-12-11T12:20:03.933Z,41.00
2022-12-11T12:23:00.728Z,40.15
2022-12-11T12:25:54.086Z,37.78
2022-12-11T12:28:45.030Z,40.70
2022-12-11T12:31:23.981Z,43.88
2022-12-11T12:34:29.338Z,41.70
2022-12-11T12:40:03.911Z,40.33
2022-12-11T12:42:51.123Z,43.17
2022-12-11T12:46:01.007Z,31.88
2022-12-11T12:48:28.299Z,37.47
2022-12-11T12:50:55.907Z,35.35
2022-12-11T12:53:27.420Z,40.13
2022-12-11T12:55:54.622Z,40.72
2022-12-11T12:58:41.213Z,39.63
2022-12-11T13:01:20.884Z,38.92
2022-12-11T13:04:04.518Z,33.65
2022-12-11T13:06:42.921Z,40.15
2022-12-11T13:09:24.410Z,38.33
2022-12-11T13:11:54.971Z,42.30
2022-12-11T13:14:32.658Z,43.42
2022-12-11T13:17:35.875Z,44.78
2022-12-11T13:20:18.325Z,39.20
2022-12-11T13:23:06.705Z,38.42
2022-12-11T13:25:54.249Z,43.92
2022-12-11T13:28:37.942Z,41.97
2022-12-11T13:31:16.075Z,45.23
2022-12-11T13:33:46.998Z,41.00
2022-12-11T13:36:18.900Z,46.05
2022-12-11T13:39:15.260Z,40.75
2022-12-11T13:41:48.998Z,44.60
2022-12-11T13:44:24.702Z,48.80
2022-12-11T13:46:52.442Z,42.50
2022-12-11T13:49:35.546Z,40.30
2022-12-11T13:52:02.860Z,36.30
2022-12-11T13:54:32.066Z,34.67
2022-12-11T13:57:00.397Z,30.60
2022-12-11T13:59:36.472Z,31.38
2022-12-11T14:02:29.216Z,29.95
2022-12-11T14:05:02.541Z,32.30
2022-12-11T14:07:39.113Z,27.07
2022-12-11T14:10:33.604Z,26.90
2022-12-11T14:13:17.778Z,32.63
2022-12-11T14:15:45.424Z,30.88
2022-12-11T14:18:22.261Z,29.70
2022-12-11T14:21:01.803Z,33.28
2022-12-11T14:23:33.667Z,29.50
2022-12-11T14:26:18.370Z,32.60
2022-12-11T14:28:45.581Z,34.42
2022-12-11T14:31:39.728Z,42.55
2022-12-11T14:34:17.979Z,42.90
2022-12-11T14:36:48.385Z,40.20
2022-12-11T14:39:34.049Z,35.72
2022-12-11T14:42:10.408Z,38.83
2022-12-11T14:45:06.695Z,42.22
2022-12-11T14:47:42.756Z,38.40
2022-12-11T14:50:26.715Z,38.72
2022-12-11T14:52:57.148Z,36.38
2022-12-11T14:55:30.720Z,34.63
2022-12-11T14:58:03.460Z,38.40
2022-12-11T15:00:36.666Z,41.45
2022-12-11T15:03:07.392Z,38.17
2022-12-11T15:05:40.529Z,41.30
2022-12-11T15:08:13.812Z,48.10
2022-12-11T15:10:43.493Z,48.92
2022-12-11T15:13:10.849Z,40.75
2022-12-11T15:15:46.558Z,36.88
2022-12-11T15:18:24.201Z,38.30
2022-12-11T15:20:53.370Z,31.58
2022-12-11T15:23:20.576Z,38.13
2022-12-11T15:25:58.188Z,33.78
2022-12-11T15:28:37.231Z,30.63
2022-12-11T15:31:26.329Z,30.23
2022-12-11T15:33:53.558Z,37.00
2022-12-11T15:36:30.578Z,35.30
2022-12-11T15:38:57.925Z,56.85
2022-12-11T15:41:25.366Z,37.95
2022-12-11T15:43:58.620Z,32.28
2022-12-11T15:46:26.560Z,31.75
2022-12-11T15:48:53.768Z,37.58
2022-12-11T15:51:20.939Z,37.45
2022-12-11T15:53:49.310Z,33.08
2022-12-11T15:56:17.447Z,34.50
2022-12-11T15:58:45.154Z,34.28
2022-12-11T16:01:12.489Z,34.30
2022-12-11T16:03:39.775Z,35.38
2022-12-11T16:06:07.050Z,32.25
2022-12-11T16:08:34.321Z,35.03
2022-12-11T16:11:01.461Z,36.17
2022-12-11T16:13:29.899Z,34.60
2022-12-11T16:15:58.397Z,34.22
2022-12-11T16:18:26.537Z,38.28
2022-12-11T16:20:53.716Z,41.85
2022-12-11T16:23:25.181Z,35.28
2022-12-11T16:25:52.319Z,34.97
2022-12-11T16:28:21.171Z,38.33
2022-12-11T16:30:48.543Z,40.30
2022-12-11T16:33:15.889Z,37.78
2022-12-11T16:35:43.189Z,39.63
2022-12-11T16:38:10.885Z,39.17
2022-12-11T16:40:38.331Z,39.20
2022-12-11T16:43:05.660Z,37.22
2022-12-11T16:45:33.486Z,39.60
2022-12-11T16:48:03.609Z,40.80
2022-12-11T16:50:32.156Z,32.90
2022-12-11T16:52:59.464Z,40.88
2022-12-11T16:55:27.743Z,43.47
2022-12-11T16:57:55.223Z,40.42
2022-12-11T17:00:22.579Z,41.67
2022-12-11T17:02:50.097Z,40.53
2022-12-11T17:05:17.484Z,41.50
2022-12-11T17:07:44.697Z,37.70
2022-12-11T17:10:11.962Z,37.17
2022-12-11T17:12:39.197Z,33.28
2022-12-11T17:15:07.202Z,31.00
2022-12-11T17:17:37.535Z,33.22
2022-12-11T17:20:05.253Z,28.15
2022-12-11T17:22:32.859Z,35.58
2022-12-11T17:25:00.027Z,28.92
2022-12-11T17:27:27.178Z,31.17
2022-12-11T17:29:54.317Z,36.35
2022-12-11T17:32:21.489Z,29.58
2022-12-11T17:34:50.417Z,30.00
2022-12-11T17:37:18.635Z,28.33
2022-12-11T17:39:47.289Z,30.83
2022-12-11T17:42:14.532Z,27.48
2022-12-11T17:44:41.973Z,29.02
2022-12-11T17:47:11.951Z,31.70
2022-12-11T17:49:40.417Z,33.33
2022-12-11T17:52:07.681Z,29.67
2022-12-11T17:54:35.093Z,32.25
2022-12-11T17:57:02.576Z,29.88
2022-12-11T17:59:29.760Z,31.77
2022-12-11T18:01:57.705Z,29.05
2022-12-11T18:04:25.165Z,28.25
2022-12-11T18:06:52.320Z,36.42
2022-12-11T18:09:19.496Z,30.42
2022-12-11T18:11:46.619Z,33.78
2022-12-11T18:14:17.078Z,32.58
2022-12-11T18:16:44.745Z,37.20
2022-12-11T18:19:12.175Z,35.10
2022-12-11T18:21:42.667Z,33.63
2022-12-11T18:24:10.394Z,34.63
2022-12-11T18:26:37.649Z,34.53
2022-12-11T18:29:04.902Z,34.10
2022-12-11T18:31:32.572Z,33.05
2022-12-11T18:34:01.006Z,35.70
2022-12-11T18:36:28.264Z,32.75
2022-12-11T18:38:55.491Z,31.63
2022-12-11T18:41:23.451Z,33.95
2022-12-11T18:43:50.573Z,33.75
2022-12-11T18:46:20.967Z,33.92
2022-12-11T18:48:48.753Z,31.00
2022-12-11T18:51:20.291Z,37.58
2022-12-11T18:53:47.501Z,35.92
2022-12-11T18:56:16.889Z,41.47
2022-12-11T18:58:44.283Z,35.20
2022-12-11T19:01:13.998Z,36.67
2022-12-11T19:03:44.296Z,35.40
2022-12-11T19:06:14.486Z,34.70
2022-12-11T19:08:41.809Z,33.38
2022-12-11T19:11:09.088Z,33.35
2022-12-11T19:13:36.413Z,34.42
2022-12-11T19:16:03.949Z,35.75
2022-12-11T19:18:31.203Z,34.70
2022-12-11T19:21:06.718Z,34.42
2022-12-11T19:23:36.339Z,32.35
2022-12-11T19:26:03.722Z,36.42
2022-12-11T19:28:31.101Z,36.33
2022-12-11T19:30:59.723Z,37.05
2022-12-11T19:33:26.958Z,37.47
2022-12-11T19:36:05.217Z,34.95
2022-12-11T19:38:32.462Z,37.95
2022-12-11T19:40:59.582Z,43.63
2022-12-11T19:43:26.723Z,35.22
2022-12-11T19:45:53.907Z,37.30
2022-12-11T19:48:21.130Z,36.08
2022-12-11T19:50:48.295Z,36.38
2022-12-11T19:53:15.452Z,37.65
2022-12-11T19:55:50.904Z,33.13
2022-12-11T19:58:18.112Z,28.90
2022-12-11T20:00:46.569Z,37.05
2022-12-11T20:03:13.842Z,32.50
2022-12-11T20:05:41.167Z,32.60
2022-12-11T20:08:42.409Z,31.60
2022-12-11T20:10:57.203Z,32.35
2022-12-11T20:13:24.460Z,30.85
2022-12-11T20:15:51.647Z,31.73
2022-12-11T20:18:19.176Z,32.85
2022-12-11T20:20:46.335Z,33.10
2022-12-11T20:23:13.507Z,36.65
2022-12-11T20:25:40.756Z,30.88
2022-12-11T20:28:07.904Z,31.35
2022-12-11T20:30:35.204Z,32.67
2022-12-11T20:33:02.395Z,40.25
2022-12-11T20:35:29.594Z,28.75
2022-12-11T20:37:56.753Z,28.27
2022-12-11T20:40:25.269Z,36.53
2022-12-11T20:42:52.445Z,24.50
2022-12-11T20:45:20.040Z,31.50
2022-12-11T20:47:49.215Z,33.75
2022-12-11T20:50:16.376Z,37.30
2022-12-11T20:52:43.576Z,39.22
2022-12-11T20:55:12.859Z,37.45
2022-12-11T20:57:44.908Z,30.02
2022-12-11T21:00:13.291Z,30.27
2022-12-11T21:02:40.465Z,31.23
2022-12-11T21:05:07.870Z,33.20
2022-12-11T21:07:35.041Z,32.58
2022-12-11T21:10:02.254Z,27.25
2022-12-11T21:12:31.744Z,28.80
2022-12-11T21:14:59.140Z,33.28
2022-12-11T21:17:26.281Z,29.85
2022-12-11T21:19:53.420Z,29.05
2022-12-11T21:22:20.725Z,35.63
2022-12-11T21:24:47.861Z,31.75
2022-12-11T21:27:15.001Z,33.40
2022-12-11T21:29:42.149Z,33.65
2022-12-11T21:32:09.387Z,28.65
2022-12-11T21:34:37.811Z,29.00
2022-12-11T21:37:05.042Z,30.42
2022-12-11T21:39:37.527Z,32.85
2022-12-11T21:47:21.821Z,28.23
2022-12-11T21:49:49.007Z,29.52
2022-12-11T21:52:16.210Z,31.85
2022-12-11T21:54:43.386Z,32.03
2022-12-11T21:57:10.651Z,32.92
2022-12-11T21:59:37.846Z,28.48
2022-12-11T22:02:05.063Z,33.42
2022-12-11T22:04:32.296Z,63.72
2022-12-11T22:06:59.437Z,159.32
2022-12-11T22:09:26.694Z,84.60
2022-12-11T22:11:58.288Z,64.82
2022-12-11T22:14:26.183Z,47.55
2022-12-11T22:16:53.382Z,41.75
2022-12-11T22:19:21.085Z,34.40
2022-12-11T22:21:48.275Z,33.25
2022-12-11T22:24:15.459Z,29.00
2022-12-11T22:26:42.615Z,33.45
2022-12-11T22:29:10.958Z,36.78
2022-12-11T22:31:38.079Z,38.38
2022-12-11T22:34:05.267Z,32.45
2022-12-11T22:36:32.386Z,34.30
2022-12-11T22:39:02.012Z,32.20
2022-12-11T22:41:31.391Z,31.05
2022-12-11T22:43:58.921Z,33.10
2022-12-11T22:46:29.317Z,31.95
2022-12-11T22:48:57.191Z,33.50
2022-12-11T22:51:24.317Z,31.55
2022-12-11T22:53:51.526Z,33.58
2022-12-11T22:56:18.732Z,32.58
2022-12-11T22:58:46.267Z,34.38
2022-12-11T23:01:20.796Z,29.63
2022-12-11T23:03:48.269Z,41.90
2022-12-11T23:06:17.830Z,37.78
2022-12-11T23:08:45.160Z,35.33
2022-12-11T23:11:20.791Z,30.80
2022-12-11T23:13:48.081Z,33.15
2022-12-11T23:16:15.575Z,32.90
2022-12-11T23:18:42.898Z,30.92
2022-12-11T23:21:10.359Z,33.90
2022-12-11T23:23:37.582Z,33.75
2022-12-11T23:26:05.691Z,35.53
2022-12-11T23:28:32.899Z,31.75
2022-12-11T23:31:02.804Z,31.15
2022-12-11T23:33:32.741Z,29.38
2022-12-11T23:35:59.995Z,31.00
2022-12-11T23:38:27.308Z,26.00
2022-12-11T23:40:54.507Z,33.78
2022-12-11T23:43:22.007Z,28.85
2022-12-11T23:45:49.254Z,27.23
2022-12-11T23:48:16.608Z,25.10
2022-12-11T23:50:43.901Z,26.80
2022-12-11T23:53:11.163Z,31.02
2022-12-11T23:55:40.290Z,27.65
2022-12-11T23:58:07.439Z,25.63
